Time;durP1;ratioP1;P1;durP2;ratioP2;P2;SDS_P1;SDS_P2;PMS_P1;PMS_P2;Temp;Humidity;BMP_temperature;BMP_pressure;BME280_temperature;BME280_humidity;BME280_pressure;Samples;Min_cycle;Max_cycle;Signal;HPM_P1;HPM_P2
2022/01/17 00:01:43;;;;;;;22.38;12.45;;;2.90;99.30;;;;;;5043248;28;20036;-82
2022/01/17 00:04:12;;;;;;;26.65;14.75;;;2.90;99.20;;;;;;5044166;28;20112;-82
2022/01/17 00:06:39;;;;;;;24.23;13.95;;;3.00;99.20;;;;;;5044027;28;20028;-82
2022/01/17 00:09:05;;;;;;;25.08;13.82;;;2.90;99.20;;;;;;5024232;28;20029;-82
2022/01/17 00:11:33;;;;;;;24.38;13.30;;;3.00;98.80;;;;;;5043643;28;20029;-83
2022/01/17 00:13:59;;;;;;;24.30;13.73;;;3.00;98.50;;;;;;5027279;28;20084;-83
2022/01/17 00:16:34;;;;;;;26.27;14.55;;;3.00;98.50;;;;;;5045795;28;20030;-84
2022/01/17 00:21:49;;;;;;;23.88;13.20;;;3.00;97.50;;;;;;5044981;28;20032;-83
2022/01/17 00:24:18;;;;;;;22.27;13.27;;;3.00;97.50;;;;;;5011718;28;20033;-84
2022/01/17 00:26:46;;;;;;;24.23;13.65;;;3.00;97.10;;;;;;5043426;28;20029;-84
2022/01/17 00:36:10;;;;;;;25.60;12.10;;;3.00;97.00;;;;;;5046556;28;20044;-84
2022/01/17 00:38:36;;;;;;;22.67;13.00;;;3.00;96.40;;;;;;5044470;28;20025;-84
2022/01/17 00:41:02;;;;;;;22.77;11.98;;;3.00;96.20;;;;;;5043919;28;20022;-83
2022/01/17 00:43:27;;;;;;;21.77;12.90;;;3.00;96.20;;;;;;5041795;28;20053;-83
2022/01/17 00:45:53;;;;;;;23.58;13.40;;;3.00;95.90;;;;;;5027384;28;20486;-83
2022/01/17 00:48:19;;;;;;;26.95;14.50;;;3.10;95.90;;;;;;5044794;28;20045;-84
2022/01/17 00:50:47;;;;;;;23.27;13.05;;;3.10;95.50;;;;;;5045912;28;20436;-84
2022/01/17 00:53:13;;;;;;;24.88;13.55;;;3.10;95.40;;;;;;5040422;28;20018;-84
2022/01/17 00:55:39;;;;;;;23.70;13.15;;;3.10;95.20;;;;;;5039764;28;20033;-83
2022/01/17 00:58:08;;;;;;;22.27;12.93;;;3.10;95.10;;;;;;5015259;28;20030;-84
2022/01/17 01:00:47;;;;;;;26.58;14.30;;;3.10;95.20;;;;;;5028911;28;20046;-84
2022/01/17 01:03:15;;;;;;;23.10;12.68;;;3.00;95.20;;;;;;5031422;28;20052;-83
2022/01/17 01:05:44;;;;;;;24.33;13.63;;;3.10;95.00;;;;;;5028110;28;20038;-83
2022/01/17 01:08:10;;;;;;;25.00;12.68;;;3.10;94.90;;;;;;5051402;28;20013;-84
2022/01/17 01:10:39;;;;;;;22.60;12.68;;;3.10;94.90;;;;;;5034746;28;20029;-83
2022/01/17 01:13:05;;;;;;;23.25;12.70;;;3.10;94.60;;;;;;5050949;28;20021;-83
2022/01/17 01:18:38;;;;;;;21.88;11.95;;;3.10;95.30;;;;;;5054399;28;20024;-83
2022/01/17 01:29:48;;;;;;;18.60;11.63;;;2.90;96.40;;;;;;5051261;28;20028;-83
2022/01/17 01:32:18;;;;;;;19.75;11.05;;;2.90;96.20;;;;;;5056920;28;20057;-84
2022/01/17 01:34:49;;;;;;;21.75;11.38;;;2.80;96.30;;;;;;5049273;28;20072;-84
2022/01/17 01:37:14;;;;;;;21.42;10.77;;;2.90;95.70;;;;;;5028228;28;20024;-85
2022/01/17 01:39:40;;;;;;;21.77;11.05;;;2.90;95.80;;;;;;5028088;28;20045;-82
2022/01/17 01:42:17;;;;;;;23.67;11.98;;;2.90;95.80;;;;;;5046232;28;20101;-84
2022/01/17 01:44:43;;;;;;;17.05;10.35;;;2.90;95.20;;;;;;5045125;28;20018;-84
2022/01/17 01:47:09;;;;;;;17.98;9.10;;;2.90;95.00;;;;;;5028342;28;20037;-83
2022/01/17 01:49:37;;;;;;;18.02;9.73;;;2.90;94.10;;;;;;5045439;28;20027;-84
2022/01/17 01:52:03;;;;;;;17.75;9.38;;;2.90;94.30;;;;;;5027703;28;20022;-83
2022/01/17 01:54:29;;;;;;;17.40;9.15;;;2.90;94.40;;;;;;5026955;28;20500;-83
2022/01/17 01:56:57;;;;;;;18.02;9.23;;;2.90;94.10;;;;;;5025095;28;20030;-84
2022/01/17 01:59:24;;;;;;;17.38;8.98;;;2.90;94.10;;;;;;5025673;28;20033;-83
2022/01/17 02:02:01;;;;;;;15.48;8.52;;;2.90;94.10;;;;;;5007851;28;20256;-84
2022/01/17 02:04:30;;;;;;;15.10;8.50;;;2.90;94.10;;;;;;5007640;28;20032;-84
2022/01/17 02:06:56;;;;;;;18.60;8.75;;;3.00;93.90;;;;;;5018046;28;20041;-83
2022/01/17 02:09:24;;;;;;;13.90;8.10;;;3.00;93.80;;;;;;5018930;28;20030;-83
2022/01/17 02:11:54;;;;;;;16.48;7.97;;;3.00;93.90;;;;;;5002225;28;20050;-83
2022/01/17 02:14:20;;;;;;;12.95;8.15;;;3.00;93.90;;;;;;5002986;28;20034;-83
2022/01/17 02:16:48;;;;;;;12.80;7.07;;;3.00;94.00;;;;;;5002869;28;20032;-83
2022/01/17 02:19:18;;;;;;;11.77;6.80;;;3.00;94.20;;;;;;5002702;28;20053;-83
2022/01/17 02:21:58;;;;;;;12.57;6.93;;;3.00;94.20;;;;;;5006879;28;20033;-83
2022/01/17 02:24:24;;;;;;;13.00;7.32;;;3.00;94.00;;;;;;5010630;28;20072;-84
2022/01/17 02:26:52;;;;;;;13.57;7.15;;;3.10;94.00;;;;;;5025603;28;20458;-84
2022/01/17 02:29:18;;;;;;;11.68;6.63;;;3.10;93.50;;;;;;5046714;28;20045;-84
2022/01/17 02:31:46;;;;;;;13.10;7.72;;;3.10;93.60;;;;;;5039051;28;20013;-83
2022/01/17 02:34:12;;;;;;;13.15;6.30;;;3.10;93.10;;;;;;5056588;28;20028;-84
2022/01/17 02:36:39;;;;;;;14.52;7.45;;;3.10;92.90;;;;;;5056346;28;20029;-84
2022/01/17 02:39:05;;;;;;;10.18;6.30;;;3.10;93.00;;;;;;5051161;28;20033;-84
2022/01/17 02:41:34;;;;;;;13.52;6.97;;;3.10;92.70;;;;;;5045598;28;20077;-84
2022/01/17 02:44:02;;;;;;;9.43;5.53;;;3.10;92.50;;;;;;5046216;28;20029;-84
2022/01/17 02:46:28;;;;;;;12.35;5.50;;;3.10;92.50;;;;;;5047400;28;20026;-84
2022/01/17 02:49:00;;;;;;;10.52;5.57;;;3.10;92.60;;;;;;5039350;28;20024;-84
2022/01/17 02:51:26;;;;;;;10.07;5.82;;;3.10;92.70;;;;;;5042335;28;20125;-83
2022/01/17 02:53:59;;;;;;;10.77;5.45;;;3.10;92.60;;;;;;5032392;28;20018;-83
2022/01/17 02:56:25;;;;;;;10.95;5.85;;;3.10;92.60;;;;;;5037906;28;20020;-83
2022/01/17 02:58:51;;;;;;;11.57;6.25;;;3.10;92.70;;;;;;5040205;28;20073;-82
2022/01/17 03:01:20;;;;;;;11.73;6.10;;;3.10;92.90;;;;;;5022369;28;20049;-83
2022/01/17 03:03:46;;;;;;;9.55;5.30;;;3.10;92.90;;;;;;5042492;28;20120;-84
2022/01/17 03:06:13;;;;;;;12.10;6.20;;;3.10;92.90;;;;;;5048305;28;20029;-83
2022/01/17 03:08:40;;;;;;;9.45;5.43;;;3.00;93.10;;;;;;5030637;28;20052;-84
2022/01/17 03:11:09;;;;;;;8.27;5.68;;;3.00;93.20;;;;;;5051843;28;20006;-84
2022/01/17 03:13:37;;;;;;;10.73;5.85;;;3.00;93.40;;;;;;5030515;28;20032;-84
2022/01/17 03:16:10;;;;;;;8.25;5.00;;;3.00;93.40;;;;;;5046511;28;20036;-84
2022/01/17 03:18:40;;;;;;;10.38;4.93;;;2.90;93.60;;;;;;5052251;28;20048;-83
2022/01/17 03:21:07;;;;;;;11.45;6.75;;;2.90;93.80;;;;;;5049995;28;20025;-84
2022/01/17 03:23:34;;;;;;;12.45;6.32;;;2.80;93.70;;;;;;5047431;28;20033;-82
2022/01/17 03:26:00;;;;;;;12.15;6.22;;;2.70;93.90;;;;;;5029999;28;20033;-83
2022/01/17 03:28:26;;;;;;;10.88;5.63;;;2.70;94.10;;;;;;5050364;28;20052;-84
2022/01/17 03:30:53;;;;;;;9.00;5.60;;;2.70;94.10;;;;;;5037829;28;20018;-84
2022/01/17 03:33:19;;;;;;;11.68;5.88;;;2.60;94.20;;;;;;5056157;28;20017;-84
2022/01/17 03:35:47;;;;;;;10.43;6.13;;;2.70;94.50;;;;;;5056279;28;20040;-83
2022/01/17 03:38:23;;;;;;;12.45;5.70;;;2.70;94.10;;;;;;5052956;28;20032;-84
2022/01/17 03:40:51;;;;;;;10.70;6.22;;;2.70;94.20;;;;;;5038111;28;20056;-83
2022/01/17 03:43:22;;;;;;;10.48;5.80;;;2.70;94.30;;;;;;5038692;28;20080;-83
2022/01/17 03:45:49;;;;;;;9.38;5.05;;;2.60;94.40;;;;;;5038735;28;20045;-84
2022/01/17 03:48:21;;;;;;;12.13;5.85;;;2.60;94.70;;;;;;5035939;28;20032;-84
2022/01/17 03:51:06;;;;;;;11.15;6.32;;;2.60;94.90;;;;;;5050356;28;20030;-84
2022/01/17 03:53:35;;;;;;;11.52;5.72;;;2.60;95.00;;;;;;5030731;28;20025;-83
2022/01/17 03:56:13;;;;;;;10.68;6.38;;;2.60;95.20;;;;;;5051669;28;20033;-84
2022/01/17 03:58:49;;;;;;;9.50;5.55;;;2.50;95.30;;;;;;5057652;28;20036;-85
2022/01/17 04:01:34;;;;;;;10.30;6.25;;;2.60;95.50;;;;;;5051466;28;20013;-85
2022/01/17 04:04:00;;;;;;;12.25;6.50;;;2.60;95.80;;;;;;5030297;28;20026;-84
2022/01/17 04:06:34;;;;;;;13.48;6.25;;;2.60;95.80;;;;;;5049138;28;20056;-84
2022/01/17 04:09:00;;;;;;;13.05;6.80;;;2.80;96.20;;;;;;5049388;28;20086;-83
2022/01/17 04:11:37;;;;;;;10.15;6.13;;;2.80;96.00;;;;;;5048693;28;20025;-83
2022/01/17 04:14:06;;;;;;;8.32;5.80;;;2.80;96.40;;;;;;5048931;28;20029;-83
2022/01/17 04:16:42;;;;;;;10.18;6.15;;;2.90;96.20;;;;;;5029525;28;20029;-83
2022/01/17 04:19:17;;;;;;;12.07;6.10;;;3.00;96.20;;;;;;5027420;28;20022;-83
2022/01/17 04:21:51;;;;;;;11.70;5.80;;;3.00;96.20;;;;;;5028257;28;20116;-83
2022/01/17 04:24:30;;;;;;;12.50;5.97;;;3.00;96.20;;;;;;5037277;28;20020;-83
2022/01/17 04:27:06;;;;;;;11.43;6.07;;;3.00;96.20;;;;;;5026961;28;20056;-84
2022/01/17 04:29:32;;;;;;;10.93;6.35;;;3.10;96.30;;;;;;5024865;28;20029;-80
2022/01/17 04:31:58;;;;;;;11.35;6.22;;;3.00;96.30;;;;;;5054868;28;20074;-81
2022/01/17 04:34:23;;;;;;;11.98;6.47;;;3.00;96.40;;;;;;5044150;28;20024;-81
2022/01/17 04:36:49;;;;;;;10.43;5.85;;;3.00;96.30;;;;;;5037442;28;20501;-81
2022/01/17 04:39:17;;;;;;;12.68;6.57;;;3.00;96.20;;;;;;5042351;28;20027;-80
2022/01/17 04:41:43;;;;;;;9.68;5.75;;;3.00;96.30;;;;;;5041492;28;20022;-80
2022/01/17 04:46:52;;;;;;;12.07;6.18;;;3.00;96.50;;;;;;5043093;28;20497;-80
2022/01/17 04:49:18;;;;;;;11.55;5.93;;;3.00;96.40;;;;;;5044332;28;20049;-81
2022/01/17 04:51:45;;;;;;;10.35;5.97;;;3.00;96.70;;;;;;5044054;28;20026;-81
2022/01/17 04:56:53;;;;;;;12.43;5.82;;;3.00;96.50;;;;;;5023736;28;20037;-80
2022/01/17 04:59:18;;;;;;;12.15;6.10;;;3.10;96.40;;;;;;5040619;28;20025;-79
2022/01/17 05:01:44;;;;;;;9.07;5.97;;;3.10;96.50;;;;;;5024968;28;20363;-80
2022/01/17 05:04:10;;;;;;;11.32;5.80;;;3.00;96.70;;;;;;5043535;28;20029;-80
2022/01/17 05:06:35;;;;;;;11.90;6.25;;;3.00;96.80;;;;;;5043412;28;20039;-80
2022/01/17 05:09:03;;;;;;;11.02;6.20;;;3.00;96.70;;;;;;5026269;28;20079;-80
2022/01/17 05:11:30;;;;;;;8.57;5.60;;;3.10;96.60;;;;;;5043974;28;20045;-80
2022/01/17 05:13:57;;;;;;;11.57;6.47;;;3.10;96.70;;;;;;5046386;28;20022;-80
2022/01/17 05:16:31;;;;;;;10.65;6.03;;;3.10;96.50;;;;;;5042473;28;20229;-80
2022/01/17 05:21:40;;;;;;;9.18;5.43;;;3.10;96.50;;;;;;5042189;28;20113;-80
2022/01/17 05:24:06;;;;;;;10.00;5.00;;;3.10;96.50;;;;;;5036359;28;20030;-81
2022/01/17 05:26:32;;;;;;;9.93;5.28;;;3.10;96.60;;;;;;5023746;28;20108;-80
2022/01/17 05:28:58;;;;;;;12.27;5.25;;;3.10;96.70;;;;;;5042129;28;20036;-80
2022/01/17 05:31:23;;;;;;;10.23;5.50;;;3.10;96.70;;;;;;5027988;28;20026;-81
2022/01/17 05:33:49;;;;;;;9.55;5.85;;;3.10;96.60;;;;;;5046426;28;20033;-80
2022/01/17 05:36:15;;;;;;;9.48;5.53;;;3.10;96.50;;;;;;5030175;28;20025;-80
2022/01/17 05:38:40;;;;;;;9.90;5.93;;;3.10;96.30;;;;;;5030095;28;20022;-80
2022/01/17 05:41:06;;;;;;;7.40;5.03;;;3.20;96.20;;;;;;5045936;28;20025;-80
2022/01/17 05:43:32;;;;;;;9.70;5.75;;;3.20;96.00;;;;;;5041487;28;20486;-80
2022/01/17 05:45:58;;;;;;;9.73;5.85;;;3.20;96.00;;;;;;5042504;28;20034;-83
2022/01/17 05:48:26;;;;;;;9.77;5.28;;;3.20;96.10;;;;;;5034291;28;20021;-83
2022/01/17 05:50:52;;;;;;;10.10;5.50;;;3.20;96.10;;;;;;5048585;28;20181;-83
2022/01/17 05:53:17;;;;;;;9.65;5.13;;;3.20;96.10;;;;;;5047960;28;20036;-83
2022/01/17 05:55:46;;;;;;;9.95;5.72;;;3.30;96.10;;;;;;5048129;28;20107;-82
2022/01/17 06:01:31;;;;;;;8.95;4.85;;;3.30;95.80;;;;;;5043544;28;20044;-83
2022/01/17 06:04:29;;;;;;;10.27;5.10;;;3.30;95.80;;;;;;5046424;28;20009;-83
2022/01/17 06:06:55;;;;;;;9.07;5.20;;;3.40;95.90;;;;;;5045290;28;20061;-85
2022/01/17 06:09:20;;;;;;;10.05;5.10;;;3.40;95.70;;;;;;5031063;28;20044;-82
2022/01/17 06:11:46;;;;;;;9.07;5.80;;;3.40;95.40;;;;;;5070653;22;20135;-86
2022/01/17 06:14:16;;;;;;;7.68;4.90;;;3.40;95.50;;;;;;5043669;28;20017;-85
2022/01/17 06:16:45;;;;;;;6.65;4.47;;;3.40;95.40;;;;;;5058977;28;20031;-85
2022/01/17 06:19:12;;;;;;;10.68;4.72;;;3.40;95.70;;;;;;5042373;28;20029;-85
2022/01/17 06:21:38;;;;;;;7.50;4.65;;;3.50;95.50;;;;;;5010750;28;20031;-85
2022/01/17 06:24:06;;;;;;;9.52;5.05;;;3.50;95.00;;;;;;5022992;28;20073;-84
2022/01/17 06:26:33;;;;;;;10.23;5.68;;;3.50;95.10;;;;;;5020465;28;20065;-85
2022/01/17 06:28:59;;;;;;;10.68;5.00;;;3.50;95.10;;;;;;5029660;28;20025;-86
2022/01/17 06:31:25;;;;;;;8.75;5.00;;;3.50;95.10;;;;;;5041367;28;20078;-85
2022/01/17 06:33:50;;;;;;;7.95;5.03;;;3.50;95.10;;;;;;5046967;28;20033;-85
2022/01/17 06:36:16;;;;;;;10.27;5.95;;;3.60;94.80;;;;;;5041790;28;20037;-86
2022/01/17 06:38:42;;;;;;;8.93;5.13;;;3.60;94.70;;;;;;5040074;28;20033;-83
2022/01/17 06:41:08;;;;;;;10.13;5.28;;;3.60;94.60;;;;;;5017248;28;20038;-85
2022/01/17 06:43:34;;;;;;;7.05;4.15;;;3.60;94.80;;;;;;5025329;28;20104;-83
2022/01/17 06:46:00;;;;;;;10.68;6.07;;;3.60;94.70;;;;;;5026968;28;20026;-80
2022/01/17 06:48:30;;;;;;;8.35;4.70;;;3.60;94.60;;;;;;5022077;28;20086;-80
2022/01/17 06:50:55;;;;;;;9.73;5.40;;;3.60;94.60;;;;;;5033282;28;20048;-82
2022/01/17 06:53:26;;;;;;;8.13;4.78;;;3.70;94.40;;;;;;5026633;28;20474;-83
2022/01/17 06:55:52;;;;;;;8.27;4.68;;;3.60;94.60;;;;;;5029456;28;20030;-85
2022/01/17 06:58:18;;;;;;;10.02;5.20;;;3.70;94.60;;;;;;5019933;28;20048;-85
2022/01/17 07:00:44;;;;;;;9.43;5.40;;;3.70;94.60;;;;;;5019079;28;21712;-84
2022/01/17 07:03:10;;;;;;;9.63;4.97;;;3.70;94.50;;;;;;5012923;28;20022;-84
2022/01/17 07:05:36;;;;;;;10.13;4.93;;;3.80;94.50;;;;;;5025603;28;20026;-84
2022/01/17 07:08:02;;;;;;;8.77;5.28;;;3.70;94.60;;;;;;5038661;28;20029;-84
2022/01/17 07:10:28;;;;;;;12.27;5.53;;;3.70;94.50;;;;;;5036111;28;20025;-84
2022/01/17 07:12:55;;;;;;;10.35;4.72;;;3.80;94.40;;;;;;5023450;28;20065;-83
2022/01/17 07:15:21;;;;;;;8.90;4.95;;;3.80;94.40;;;;;;5022416;28;20049;-84
2022/01/17 07:17:46;;;;;;;9.23;5.18;;;3.90;94.20;;;;;;5022636;28;20025;-84
2022/01/17 07:20:12;;;;;;;10.30;5.20;;;3.90;94.10;;;;;;5021957;28;20033;-83
2022/01/17 07:22:38;;;;;;;8.55;4.82;;;3.90;94.30;;;;;;5019923;28;20071;-82
2022/01/17 07:25:04;;;;;;;11.63;5.70;;;3.90;94.40;;;;;;5015727;28;20029;-82
2022/01/17 07:27:30;;;;;;;8.77;4.75;;;3.80;94.50;;;;;;5021556;28;20259;-81
2022/01/17 07:29:56;;;;;;;8.57;5.07;;;3.80;94.60;;;;;;5038654;28;20337;-82
2022/01/17 07:32:23;;;;;;;8.88;4.72;;;3.90;94.60;;;;;;5020603;28;20086;-84
2022/01/17 07:34:49;;;;;;;10.13;4.68;;;3.90;94.50;;;;;;5021655;28;20113;-82
2022/01/17 07:37:14;;;;;;;7.45;4.85;;;3.90;94.40;;;;;;5012115;28;20026;-82
2022/01/17 07:39:40;;;;;;;8.45;5.22;;;4.00;94.40;;;;;;5009202;28;20033;-83
2022/01/17 07:42:06;;;;;;;7.88;4.32;;;4.00;94.40;;;;;;5008654;28;20026;-85
2022/01/17 07:44:34;;;;;;;9.32;4.50;;;4.00;94.40;;;;;;5013625;28;20470;-83
2022/01/17 07:47:01;;;;;;;7.07;5.05;;;4.00;94.40;;;;;;5008358;28;20121;-84
2022/01/17 07:49:28;;;;;;;7.72;4.22;;;4.00;94.30;;;;;;5051895;28;20034;-82
2022/01/17 07:52:05;;;;;;;7.97;4.85;;;4.00;94.30;;;;;;5036057;28;20030;-84
2022/01/17 07:54:37;;;;;;;7.65;4.75;;;4.10;94.30;;;;;;5013158;28;20049;-84
2022/01/17 07:57:04;;;;;;;7.43;4.47;;;4.10;94.20;;;;;;5007421;28;20064;-82
2022/01/17 07:59:30;;;;;;;11.82;5.25;;;4.10;94.40;;;;;;5027025;28;20025;-84
2022/01/17 08:01:56;;;;;;;8.18;4.72;;;4.10;94.40;;;;;;5018827;28;20018;-82
2022/01/17 08:04:22;;;;;;;9.68;5.30;;;4.10;94.50;;;;;;5014150;28;20018;-83
2022/01/17 08:06:49;;;;;;;7.22;4.88;;;4.10;94.40;;;;;;5032987;28;20466;-81
2022/01/17 08:09:29;;;;;;;11.65;4.65;;;4.10;94.50;;;;;;5053702;28;20038;-80
2022/01/17 08:11:56;;;;;;;9.00;5.22;;;4.20;94.60;;;;;;5026112;28;20038;-85
2022/01/17 08:14:24;;;;;;;8.75;4.70;;;4.30;94.50;;;;;;5002604;28;20389;-83
2022/01/17 08:16:53;;;;;;;7.18;4.50;;;4.20;94.50;;;;;;5007818;28;20105;-84
2022/01/17 08:19:19;;;;;;;7.10;4.93;;;4.30;94.70;;;;;;5000782;28;20110;-83
2022/01/17 08:21:47;;;;;;;10.25;5.03;;;4.20;94.90;;;;;;5003372;28;20026;-83
2022/01/17 08:24:13;;;;;;;8.77;4.90;;;4.30;95.00;;;;;;5025071;28;20026;-83
2022/01/17 08:26:42;;;;;;;9.05;4.72;;;4.30;94.70;;;;;;5006872;28;20025;-82
2022/01/17 08:29:09;;;;;;;9.77;4.70;;;4.40;94.90;;;;;;5017598;28;20034;-83
2022/01/17 08:31:35;;;;;;;6.53;4.63;;;4.40;94.90;;;;;;5009428;28;20098;-82
2022/01/17 08:34:01;;;;;;;7.07;3.85;;;4.40;95.10;;;;;;5001462;28;20042;-83
2022/01/17 08:36:27;;;;;;;7.80;4.85;;;4.50;95.10;;;;;;5000488;28;20030;-83
2022/01/17 08:38:53;;;;;;;7.15;4.32;;;4.50;94.90;;;;;;5004911;28;20046;-81
2022/01/17 08:41:19;;;;;;;8.60;4.53;;;4.60;95.00;;;;;;5034754;28;20014;-81
2022/01/17 08:43:46;;;;;;;7.10;4.30;;;4.60;94.60;;;;;;5019272;28;20093;-80
2022/01/17 08:46:12;;;;;;;7.75;4.68;;;4.70;94.80;;;;;;5032844;28;20022;-84
2022/01/17 08:48:41;;;;;;;8.63;4.82;;;4.60;94.90;;;;;;5021056;28;20024;-83
2022/01/17 08:51:07;;;;;;;7.45;4.53;;;4.60;95.10;;;;;;5042406;28;20076;-82
2022/01/17 08:53:34;;;;;;;8.85;4.72;;;4.70;95.00;;;;;;5023136;28;20057;-82
2022/01/17 08:56:00;;;;;;;7.60;4.72;;;4.70;94.90;;;;;;5014376;28;20042;-82
2022/01/17 08:58:26;;;;;;;10.38;5.53;;;4.80;95.00;;;;;;5024492;28;20018;-84
2022/01/17 09:00:52;;;;;;;6.75;4.50;;;4.90;94.90;;;;;;5039866;28;20014;-81
2022/01/17 09:03:19;;;;;;;7.65;4.60;;;4.90;94.70;;;;;;5018942;28;20018;-83
2022/01/17 09:05:45;;;;;;;7.97;5.40;;;5.00;94.60;;;;;;5042200;28;20102;-81
2022/01/17 09:08:11;;;;;;;9.25;5.20;;;5.00;94.20;;;;;;5005550;28;20034;-81
2022/01/17 09:10:37;;;;;;;10.05;5.22;;;5.00;94.10;;;;;;5011426;28;20050;-82
2022/01/17 09:13:04;;;;;;;7.25;4.50;;;5.10;94.30;;;;;;5023582;28;20037;-81
2022/01/17 09:15:30;;;;;;;11.05;5.03;;;5.10;94.40;;;;;;5020025;28;20022;-82
2022/01/17 09:17:56;;;;;;;8.35;4.97;;;5.10;94.00;;;;;;4999837;28;20041;-83
2022/01/17 09:20:22;;;;;;;8.25;4.90;;;5.10;94.10;;;;;;5013839;28;20014;-82
2022/01/17 09:22:48;;;;;;;9.32;4.90;;;5.10;94.10;;;;;;5010969;28;20052;-84
2022/01/17 09:25:14;;;;;;;11.93;5.72;;;5.20;94.20;;;;;;5014659;28;20018;-82
2022/01/17 09:27:40;;;;;;;7.55;5.18;;;5.20;94.10;;;;;;5022895;28;20498;-79
2022/01/17 09:30:10;;;;;;;6.47;4.65;;;5.30;93.90;;;;;;5024330;28;20042;-80
2022/01/17 09:32:36;;;;;;;7.40;4.68;;;5.50;93.60;;;;;;5015993;28;20030;-80
2022/01/17 09:35:03;;;;;;;9.23;5.50;;;5.40;93.50;;;;;;5006311;28;20054;-84
2022/01/17 09:37:29;;;;;;;7.45;4.88;;;5.50;93.20;;;;;;5012824;28;20078;-80
2022/01/17 09:39:55;;;;;;;6.43;4.63;;;5.50;93.10;;;;;;5020172;28;20061;-82
2022/01/17 09:42:23;;;;;;;8.88;4.95;;;5.60;93.00;;;;;;5013845;28;20019;-83
2022/01/17 09:44:49;;;;;;;7.78;4.70;;;5.50;92.90;;;;;;5000964;28;20485;-83
2022/01/17 09:47:17;;;;;;;8.55;5.07;;;5.50;93.00;;;;;;5014038;28;20018;-83
2022/01/17 09:49:49;;;;;;;6.80;4.50;;;5.50;93.20;;;;;;5009292;28;20018;-84
2022/01/17 09:54:53;;;;;;;9.20;5.57;;;5.50;93.20;;;;;;5013561;28;20031;-82
2022/01/17 09:57:21;;;;;;;9.18;5.22;;;5.40;93.10;;;;;;5018742;28;20014;-82
2022/01/17 09:59:47;;;;;;;9.90;4.43;;;5.40;93.10;;;;;;5022678;28;20018;-84
2022/01/17 10:02:13;;;;;;;7.13;4.50;;;5.40;93.00;;;;;;5017115;28;20497;-82
2022/01/17 10:04:40;;;;;;;7.65;4.60;;;5.50;92.80;;;;;;5011907;28;20053;-83
2022/01/17 10:07:07;;;;;;;8.02;4.82;;;5.60;93.10;;;;;;5010095;28;20079;-81
2022/01/17 10:09:34;;;;;;;9.27;4.47;;;5.80;92.30;;;;;;5014966;28;20027;-83
2022/01/17 10:12:03;;;;;;;8.45;4.55;;;6.00;92.30;;;;;;5000483;28;20038;-81
2022/01/17 10:14:36;;;;;;;8.07;4.38;;;6.10;91.90;;;;;;5015667;28;20045;-78
2022/01/17 10:17:17;;;;;;;7.18;4.82;;;6.10;91.70;;;;;;5022227;28;20009;-82
2022/01/17 10:19:44;;;;;;;10.32;4.90;;;6.20;91.30;;;;;;5009876;28;20038;-84
2022/01/17 10:22:17;;;;;;;8.20;4.38;;;6.10;91.50;;;;;;5015707;28;20457;-82
2022/01/17 10:25:03;;;;;;;6.90;4.13;;;6.10;91.20;;;;;;5007893;28;20019;-82
2022/01/17 10:28:09;;;;;;;5.80;4.20;;;6.10;91.30;;;;;;5019768;28;20026;-80
2022/01/17 10:35:57;;;;;;;6.20;3.63;;;6.40;90.60;;;;;;5020348;28;20044;-81
2022/01/17 10:38:29;;;;;;;4.75;3.20;;;6.40;90.60;;;;;;5018807;28;20367;-84
2022/01/17 10:41:44;;;;;;;7.65;4.55;;;6.50;90.40;;;;;;5001501;28;20034;-83
2022/01/17 10:44:50;;;;;;;9.90;4.65;;;6.50;90.00;;;;;;4998430;28;20157;-84
2022/01/17 10:47:51;;;;;;;6.10;3.85;;;6.30;90.60;;;;;;5002688;28;20041;-84
2022/01/17 10:53:52;;;;;;;6.57;3.78;;;6.30;90.50;;;;;;5021062;28;20093;-79
2022/01/17 10:57:05;;;;;;;5.65;3.95;;;6.50;90.20;;;;;;5017706;28;20118;-83
2022/01/17 10:59:33;;;;;;;6.68;3.97;;;6.40;90.20;;;;;;4960868;28;20038;-85
2022/01/17 11:01:59;;;;;;;6.80;3.88;;;6.40;90.20;;;;;;4996966;28;20050;-85
2022/01/17 11:04:38;;;;;;;7.30;3.88;;;6.30;90.50;;;;;;5017891;28;20029;-85
2022/01/17 11:07:07;;;;;;;5.82;3.28;;;6.30;90.20;;;;;;5019301;28;20026;-84
2022/01/17 11:09:46;;;;;;;6.60;3.67;;;6.20;90.40;;;;;;5015022;28;20026;-84
2022/01/17 11:12:13;;;;;;;6.13;3.70;;;6.20;90.50;;;;;;5008899;28;20053;-82
2022/01/17 11:14:42;;;;;;;5.40;3.88;;;6.10;90.70;;;;;;5017943;28;20045;-83
2022/01/17 11:17:37;;;;;;;6.05;3.78;;;6.10;90.80;;;;;;5018275;28;20037;-84
2022/01/17 11:20:07;;;;;;;11.20;4.55;;;6.40;90.60;;;;;;5034056;28;20109;-84
2022/01/17 11:22:38;;;;;;;7.43;4.57;;;6.50;89.70;;;;;;5013279;28;20534;-83
2022/01/17 11:25:10;;;;;;;15.52;10.82;;;6.40;89.80;;;;;;5006085;28;20058;-85
2022/01/17 11:27:37;;;;;;;13.55;8.32;;;6.30;90.30;;;;;;4997314;28;20038;-82
2022/01/17 11:30:04;;;;;;;7.80;5.88;;;6.20;90.40;;;;;;5012335;28;20026;-83
2022/01/17 11:32:31;;;;;;;25.40;13.50;;;6.10;90.70;;;;;;5029499;28;20018;-82
2022/01/17 11:34:58;;;;;;;38.45;16.10;;;6.00;90.80;;;;;;5013577;28;20040;-81
2022/01/17 11:37:26;;;;;;;23.77;10.70;;;6.00;91.00;;;;;;5002168;28;20034;-81
2022/01/17 11:39:57;;;;;;;21.48;9.88;;;6.00;91.30;;;;;;5003584;28;20018;-85
2022/01/17 11:42:45;;;;;;;36.25;15.98;;;6.10;90.90;;;;;;5028973;28;20417;-84
2022/01/17 11:45:23;;;;;;;18.38;11.95;;;6.20;90.70;;;;;;5003843;28;20080;-83
2022/01/17 11:47:55;;;;;;;6.50;3.97;;;6.20;90.70;;;;;;5008330;28;20208;-84
2022/01/17 11:50:27;;;;;;;10.23;5.00;;;6.40;90.50;;;;;;5018111;28;20025;-84
2022/01/17 11:52:58;;;;;;;6.63;5.43;;;6.50;90.10;;;;;;5005081;28;20038;-83
2022/01/17 11:55:40;;;;;;;8.60;5.00;;;6.60;89.90;;;;;;5009584;28;20026;-85
2022/01/17 11:58:24;;;;;;;8.38;4.13;;;6.60;89.70;;;;;;5012614;28;20049;-84
2022/01/17 12:01:17;;;;;;;4.97;3.60;;;6.70;88.30;;;;;;5013348;28;20084;-84
2022/01/17 12:03:51;;;;;;;6.28;3.80;;;6.80;88.90;;;;;;5010726;28;20105;-84
2022/01/17 12:06:25;;;;;;;6.10;4.25;;;6.80;88.40;;;;;;5004192;28;20413;-82
2022/01/17 12:09:17;;;;;;;7.60;4.38;;;6.80;88.80;;;;;;5016020;28;20034;-80
2022/01/17 12:11:44;;;;;;;8.75;4.22;;;6.80;87.90;;;;;;5052166;22;20101;-79
2022/01/17 12:14:27;;;;;;;6.40;3.67;;;6.80;87.80;;;;;;5032749;28;20027;-80
2022/01/17 12:17:14;;;;;;;12.77;3.83;;;6.80;87.40;;;;;;5034857;28;20136;-79
2022/01/17 12:20:06;;;;;;;12.00;4.85;;;6.80;87.30;;;;;;5029852;28;20080;-79
2022/01/17 12:22:55;;;;;;;8.30;5.18;;;6.80;87.70;;;;;;5030665;28;20022;-78
2022/01/17 12:25:21;;;;;;;5.13;3.67;;;6.80;87.20;;;;;;5011641;28;20030;-79
2022/01/17 12:28:07;;;;;;;7.05;3.95;;;6.80;87.80;;;;;;5029971;28;20504;-79
2022/01/17 12:30:46;;;;;;;6.20;3.58;;;6.90;86.30;;;;;;5012136;28;20030;-80
2022/01/17 12:33:34;;;;;;;7.05;3.88;;;6.90;86.50;;;;;;5019605;28;20010;-80
2022/01/17 12:36:24;;;;;;;7.63;3.95;;;6.90;86.00;;;;;;5030654;28;20034;-80
2022/01/17 12:38:51;;;;;;;7.93;3.72;;;6.90;85.50;;;;;;5009451;28;20111;-79
2022/01/17 12:41:34;;;;;;;5.18;3.60;;;6.80;85.90;;;;;;5009778;28;20030;-80
2022/01/17 12:44:14;;;;;;;8.23;4.25;;;6.70;86.10;;;;;;5010305;28;20098;-78
2022/01/17 12:46:42;;;;;;;7.03;3.90;;;6.60;86.50;;;;;;5028898;28;20088;-79
2022/01/17 12:49:08;;;;;;;7.82;4.15;;;6.50;87.60;;;;;;5010015;28;20080;-80
2022/01/17 12:51:34;;;;;;;6.75;3.53;;;6.40;88.20;;;;;;5008832;28;20026;-79
2022/01/17 12:54:00;;;;;;;6.00;3.63;;;6.70;88.00;;;;;;5011287;28;20040;-80
2022/01/17 12:56:29;;;;;;;5.88;3.22;;;7.00;86.70;;;;;;5012443;28;20044;-79
2022/01/17 12:58:59;;;;;;;5.45;3.60;;;7.20;85.10;;;;;;5029339;28;20026;-79
2022/01/17 13:01:25;;;;;;;5.80;3.83;;;7.20;85.40;;;;;;5027280;28;20076;-79
2022/01/17 13:03:51;;;;;;;6.80;3.40;;;7.00;84.80;;;;;;5009847;28;20541;-79
2022/01/17 13:06:19;;;;;;;4.72;3.25;;;7.00;85.60;;;;;;5027108;28;20030;-79
2022/01/17 13:08:48;;;;;;;6.55;3.60;;;7.00;84.70;;;;;;5027773;28;20085;-78
2022/01/17 13:11:20;;;;;;;7.15;3.20;;;7.10;84.70;;;;;;5027128;28;20189;-79
2022/01/17 13:13:52;;;;;;;7.28;3.05;;;7.20;84.40;;;;;;5009394;28;20034;-79
2022/01/17 13:16:21;;;;;;;7.45;3.58;;;7.40;83.90;;;;;;5026445;28;20037;-83
2022/01/17 13:18:48;;;;;;;4.78;2.78;;;7.70;82.30;;;;;;5001601;28;20025;-79
2022/01/17 13:21:14;;;;;;;3.30;2.60;;;7.80;81.50;;;;;;4996381;28;20026;-79
2022/01/17 13:23:56;;;;;;;4.85;3.20;;;7.90;80.50;;;;;;5007903;28;20051;-80
2022/01/17 13:26:24;;;;;;;13.68;3.78;;;7.80;80.00;;;;;;5018976;28;20029;-80
2022/01/17 13:28:52;;;;;;;5.18;3.30;;;7.60;80.20;;;;;;5005966;28;20113;-80
2022/01/17 13:31:30;;;;;;;10.02;3.08;;;7.40;81.60;;;;;;5043754;28;20037;-79
2022/01/17 13:34:09;;;;;;;4.68;2.58;;;7.20;81.20;;;;;;4996923;28;20026;-79
2022/01/17 13:36:37;;;;;;;3.50;2.17;;;7.20;81.10;;;;;;5028107;28;20029;-80
2022/01/17 13:39:06;;;;;;;3.33;2.40;;;7.20;80.70;;;;;;5034844;28;20053;-79
2022/01/17 13:41:33;;;;;;;5.45;2.38;;;7.20;80.40;;;;;;5034512;28;20030;-79
2022/01/17 13:43:59;;;;;;;5.63;2.55;;;7.20;80.30;;;;;;5043487;28;20036;-78
2022/01/17 13:46:25;;;;;;;7.65;4.88;;;7.00;80.60;;;;;;5010561;28;20025;-78
2022/01/17 13:48:50;;;;;;;5.25;3.80;;;6.80;81.30;;;;;;5015077;28;20022;-77